Terminal Aerodrome Forecast
Issued by NWS

Current Version | Previous Version | Text Only | Print | Product List | Glossary On
Versions: 1 2 3 4 5 6 7 8 9 10 11 12
000
FTUS45 KRIW 211700
TAFCOD
TAF
KCOD 211720Z 2118/2218 24007KT P6SM SCT100 SCT150
     FM211900 24015G22KT P6SM VCSH SCT040 BKN080
     FM220100 26010KT P6SM SCT080 BKN130
     FM220500 23006KT P6SM SCT100
     FM221500 23012KT P6SM SCT060
      AMD LTD TO CLD VIS AND WIND=

USA.gov is the U.S. government's official web portal to all federal, state and local government web resources and services.